Time,TemperatureF,DewpointF,PressureIn,WindDirection,WindDirectionDegrees,WindSpeedMPH,WindSpeedGustMPH,Humidity,HourlyPrecipIn,Conditions,Clouds,dailyrainin,SolarRadiationWatts/m^2,SoftwareType,DateUTC
2013-01-16 00:01:00,67.7,-99.9,29.98,East,92,0.0,2.0,0,0.00,,,0.00,0,weatherlink.com 1.10,2013-01-16 04:01:00,
2013-01-16 00:16:00,67.8,-99.9,29.98,East,92,0.0,3.0,0,0.00,,,0.00,0,weatherlink.com 1.10,2013-01-16 04:16:00,
2013-01-16 00:47:00,67.6,-99.9,29.98,East,92,0.0,1.0,0,0.00,,,0.00,0,weatherlink.com 1.10,2013-01-16 04:47:00,
2013-01-16 01:02:00,67.2,-99.9,29.98,East,92,0.0,1.0,0,0.00,,,0.00,0,weatherlink.com 1.10,2013-01-16 05:02:00,
2013-01-16 01:17:00,67.1,-99.9,29.97,East,92,0.0,0.0,0,0.00,,,0.00,0,weatherlink.com 1.10,2013-01-16 05:17:00,
2013-01-16 01:32:00,67.3,-99.9,29.97,East,92,0.0,1.0,0,0.00,,,0.00,0,weatherlink.com 1.10,2013-01-16 05:32:00,
2013-01-16 01:47:00,67.2,-99.9,29.97,East,92,0.0,2.0,0,0.00,,,0.00,0,weatherlink.com 1.10,2013-01-16 05:47:00,
2013-01-16 02:02:00,67.2,-99.9,29.97,East,92,1.0,2.0,0,0.00,,,0.00,0,weatherlink.com 1.10,2013-01-16 06:02:00,
2013-01-16 02:32:00,66.7,-99.9,29.95,NNE,24,1.0,2.0,0,0.00,,,0.00,0,weatherlink.com 1.10,2013-01-16 06:32:00,
2013-01-16 02:47:00,66.5,-99.9,29.95,NNE,24,0.0,2.0,0,0.00,,,0.00,0,weatherlink.com 1.10,2013-01-16 06:47:00,
2013-01-16 03:02:00,66.5,-99.9,29.95,NNE,24,0.0,2.0,0,0.00,,,0.00,0,weatherlink.com 1.10,2013-01-16 07:02:00,
2013-01-16 03:17:00,66.5,-99.9,29.94,NNE,24,1.0,2.0,0,0.00,,,0.00,0,weatherlink.com 1.10,2013-01-16 07:17:00,
2013-01-16 03:32:00,66.0,-99.9,29.94,NNE,24,0.0,3.0,0,0.00,,,0.00,0,weatherlink.com 1.10,2013-01-16 07:32:00,
2013-01-16 03:48:00,65.9,-99.9,29.94,NNE,24,0.0,2.0,0,0.00,,,0.00,0,weatherlink.com 1.10,2013-01-16 07:48:00,
2013-01-16 04:03:00,66.1,-99.9,29.94,North,5,1.0,4.0,0,0.00,,,0.00,0,weatherlink.com 1.10,2013-01-16 08:03:00,
2013-01-16 04:18:00,65.9,-99.9,29.94,North,5,0.0,2.0,0,0.00,,,0.00,0,weatherlink.com 1.10,2013-01-16 08:18:00,
2013-01-16 04:33:00,65.8,-99.9,29.94,North,5,0.0,1.0,0,0.00,,,0.00,0,weatherlink.com 1.10,2013-01-16 08:33:00,
2013-01-16 04:48:00,65.9,-99.9,29.95,North,5,0.0,0.0,0,0.00,,,0.00,0,weatherlink.com 1.10,2013-01-16 08:48:00,
2013-01-16 05:03:00,66.0,-99.9,29.95,North,5,0.0,1.0,0,0.00,,,0.00,0,weatherlink.com 1.10,2013-01-16 09:03:00,
2013-01-16 05:18:00,66.1,-99.9,29.95,North,5,0.0,1.0,0,0.00,,,0.00,0,weatherlink.com 1.10,2013-01-16 09:18:00,
2013-01-16 05:33:00,66.1,-99.9,29.95,North,5,2.0,3.0,0,0.00,,,0.00,0,weatherlink.com 1.10,2013-01-16 09:33:00,
2013-01-16 05:48:00,66.2,-99.9,29.96,North,5,0.0,0.0,0,0.00,,,0.00,0,weatherlink.com 1.10,2013-01-16 09:48:00,
2013-01-16 06:03:00,65.5,-99.9,29.96,North,5,0.0,2.0,0,0.00,,,0.00,0,weatherlink.com 1.10,2013-01-16 10:03:00,
2013-01-16 06:18:00,64.9,-99.9,29.97,North,5,0.0,1.0,0,0.00,,,0.00,0,weatherlink.com 1.10,2013-01-16 10:18:00,
2013-01-16 06:33:00,65.0,-99.9,29.98,North,5,0.0,2.0,0,0.00,,,0.00,0,weatherlink.com 1.10,2013-01-16 10:33:00,
2013-01-16 06:48:00,65.2,-99.9,29.98,North,5,0.0,1.0,0,0.00,,,0.00,0,weatherlink.com 1.10,2013-01-16 10:48:00,
2013-01-16 07:04:00,65.0,-99.9,29.98,North,5,0.0,2.0,0,0.00,,,0.00,7,weatherlink.com 1.10,2013-01-16 11:04:00,
2013-01-16 07:19:00,65.2,-99.9,29.98,North,5,2.0,3.0,0,0.00,,,0.00,16,weatherlink.com 1.10,2013-01-16 11:19:00,
2013-01-16 07:34:00,65.3,-99.9,29.99,North,5,0.0,2.0,0,0.00,,,0.00,37,weatherlink.com 1.10,2013-01-16 11:34:00,
2013-01-16 07:49:00,65.8,-99.9,30.00,North,5,0.0,0.0,0,0.00,,,0.00,74,weatherlink.com 1.10,2013-01-16 11:49:00,
2013-01-16 08:04:00,66.4,-99.9,30.01,North,5,0.0,2.0,0,0.00,,,0.00,167,weatherlink.com 1.10,2013-01-16 12:04:00,
2013-01-16 08:19:00,68.0,-99.9,30.01,North,5,0.0,0.0,0,0.00,,,0.00,127,weatherlink.com 1.10,2013-01-16 12:19:00,
2013-01-16 08:34:00,67.5,-99.9,30.02,SE,137,0.0,4.0,0,0.00,,,0.00,116,weatherlink.com 1.10,2013-01-16 12:34:00,
2013-01-16 08:49:00,68.2,-99.9,30.02,SSE,165,0.0,3.0,0,0.00,,,0.00,244,weatherlink.com 1.10,2013-01-16 12:49:00,
2013-01-16 09:04:00,68.7,-99.9,30.02,SSE,165,0.0,2.0,0,0.00,,,0.00,388,weatherlink.com 1.10,2013-01-16 13:04:00,
2013-01-16 09:19:00,69.2,-99.9,30.03,South,175,1.0,2.0,0,0.00,,,0.00,408,weatherlink.com 1.10,2013-01-16 13:19:00,
2013-01-16 09:34:00,70.6,-99.9,30.03,WNW,288,2.0,3.0,0,0.00,,,0.00,571,weatherlink.com 1.10,2013-01-16 13:34:00,
2013-01-16 09:50:00,71.3,-99.9,30.03,WNW,288,0.0,3.0,0,0.00,,,0.00,373,weatherlink.com 1.10,2013-01-16 13:50:00,
2013-01-16 10:04:00,71.1,-99.9,30.03,NE,46,1.0,3.0,0,0.00,,,0.00,315,weatherlink.com 1.10,2013-01-16 14:04:00,
2013-01-16 10:20:00,70.6,-99.9,30.03,ENE,66,2.0,10.0,0,0.00,,,0.00,253,weatherlink.com 1.10,2013-01-16 14:20:00,
2013-01-16 10:50:00,73.7,-99.9,30.02,ENE,59,2.0,4.0,0,0.00,,,0.00,613,weatherlink.com 1.10,2013-01-16 14:50:00,
2013-01-16 11:05:00,72.9,-99.9,30.02,NNE,26,2.0,4.0,0,0.00,,,0.00,367,weatherlink.com 1.10,2013-01-16 15:05:00,
2013-01-16 11:20:00,71.7,-99.9,30.01,NNE,21,0.0,4.0,0,0.00,,,0.00,183,weatherlink.com 1.10,2013-01-16 15:20:00,
2013-01-16 11:35:00,73.5,-99.9,30.00,SE,142,0.0,4.0,0,0.00,,,0.00,925,weatherlink.com 1.10,2013-01-16 15:35:00,
2013-01-16 11:50:00,74.2,-99.9,30.00,SE,126,0.0,7.0,0,0.00,,,0.00,309,weatherlink.com 1.10,2013-01-16 15:50:00,
2013-01-16 12:05:00,78.0,-99.9,29.99,ESE,119,1.0,5.0,0,0.00,,,0.00,1157,weatherlink.com 1.10,2013-01-16 16:05:00,
2013-01-16 12:20:00,77.5,-31.0,29.98,WNW,298,0.0,7.0,1,0.00,,,0.00,258,weatherlink.com 1.10,2013-01-16 16:20:00,
2013-01-16 12:35:00,75.2,-99.9,29.97,East,88,5.0,10.0,0,0.00,,,0.00,420,weatherlink.com 1.10,2013-01-16 16:35:00,
2013-01-16 12:51:00,76.8,-4.0,29.97,East,84,3.0,9.0,4,0.00,,,0.00,302,weatherlink.com 1.10,2013-01-16 16:51:00,
2013-01-16 13:06:00,75.8,-99.9,29.97,ENE,61,7.0,7.0,0,0.00,,,0.00,522,weatherlink.com 1.10,2013-01-16 17:06:00,
2013-01-16 13:21:00,73.5,-99.9,29.96,East,86,6.0,15.0,0,0.00,,,0.00,443,weatherlink.com 1.10,2013-01-16 17:21:00,
2013-01-16 13:36:00,73.9,-99.9,29.96,SSE,148,3.0,12.0,0,0.00,,,0.00,515,weatherlink.com 1.10,2013-01-16 17:36:00,
2013-01-16 13:51:00,74.0,-99.9,29.95,SSE,151,5.0,12.0,0,0.00,,,0.00,492,weatherlink.com 1.10,2013-01-16 17:51:00,
2013-01-16 14:21:00,76.5,-99.9,29.95,East,90,2.0,9.0,0,0.00,,,0.00,348,weatherlink.com 1.10,2013-01-16 18:21:00,
2013-01-16 14:52:00,74.2,-99.9,29.94,SE,130,2.0,9.0,0,0.00,,,0.00,362,weatherlink.com 1.10,2013-01-16 18:52:00,
2013-01-16 15:06:00,75.2,-99.9,29.94,ESE,109,0.0,7.0,0,0.00,,,0.00,125,weatherlink.com 1.10,2013-01-16 19:06:00,
2013-01-16 15:21:00,75.3,-99.9,29.94,ENE,77,2.0,6.0,0,0.00,,,0.00,795,weatherlink.com 1.10,2013-01-16 19:21:00,
2013-01-16 15:36:00,74.4,-99.9,29.94,SE,128,1.0,7.0,0,0.00,,,0.00,214,weatherlink.com 1.10,2013-01-16 19:36:00,
2013-01-16 15:52:00,72.9,-99.9,29.95,South,178,0.0,10.0,0,0.00,,,0.00,130,weatherlink.com 1.10,2013-01-16 19:52:00,
2013-01-16 16:07:00,72.1,-99.9,29.95,East,84,6.0,9.0,0,0.00,,,0.00,211,weatherlink.com 1.10,2013-01-16 20:07:00,
2013-01-16 16:22:00,73.5,-99.9,29.95,ESE,105,3.0,4.0,0,0.00,,,0.00,406,weatherlink.com 1.10,2013-01-16 20:22:00,
2013-01-16 16:37:00,76.4,-19.0,29.95,East,83,0.0,4.0,2,0.00,,,0.00,441,weatherlink.com 1.10,2013-01-16 20:37:00,
2013-01-16 16:52:00,74.4,-99.9,29.96,East,81,3.0,11.0,0,0.00,,,0.00,114,weatherlink.com 1.10,2013-01-16 20:52:00,
2013-01-16 17:08:00,73.5,-99.9,29.97,NE,53,3.0,8.0,0,0.00,,,0.00,67,weatherlink.com 1.10,2013-01-16 21:08:00,
2013-01-16 17:22:00,72.8,-99.9,29.97,ESE,113,0.0,3.0,0,0.00,,,0.00,35,weatherlink.com 1.10,2013-01-16 21:22:00,
2013-01-16 17:37:00,72.0,-99.9,29.97,ENE,62,2.0,6.0,0,0.00,,,0.00,37,weatherlink.com 1.10,2013-01-16 21:37:00,
2013-01-16 17:53:00,71.6,-99.9,29.97,ENE,73,0.0,3.0,0,0.00,,,0.00,25,weatherlink.com 1.10,2013-01-16 21:53:00,
2013-01-16 18:07:00,71.1,-99.9,29.97,ENE,73,0.0,2.0,0,0.00,,,0.00,0,weatherlink.com 1.10,2013-01-16 22:07:00,
2013-01-16 18:22:00,70.3,-99.9,29.98,NNE,28,0.0,5.0,0,0.00,,,0.00,0,weatherlink.com 1.10,2013-01-16 22:22:00,
2013-01-16 18:38:00,69.7,-99.9,29.98,East,101,0.0,2.0,0,0.00,,,0.00,0,weatherlink.com 1.10,2013-01-16 22:38:00,
2013-01-16 18:53:00,69.3,-99.9,29.98,East,101,0.0,2.0,0,0.00,,,0.00,0,weatherlink.com 1.10,2013-01-16 22:53:00,
2013-01-16 19:08:00,69.0,-99.9,29.99,East,88,0.0,3.0,0,0.00,,,0.00,0,weatherlink.com 1.10,2013-01-16 23:08:00,
2013-01-16 19:38:00,68.7,-99.9,30.01,East,88,0.0,2.0,0,0.00,,,0.00,0,weatherlink.com 1.10,2013-01-16 23:38:00,
2013-01-16 19:53:00,68.7,-99.9,30.01,East,88,0.0,1.0,0,0.00,,,0.00,0,weatherlink.com 1.10,2013-01-16 23:53:00,
2013-01-16 20:08:00,68.8,-99.9,30.02,East,88,0.0,1.0,0,0.00,,,0.00,0,weatherlink.com 1.10,2013-01-17 00:08:00,
2013-01-16 20:23:00,68.5,-99.9,30.02,East,88,0.0,1.0,0,0.00,,,0.00,0,weatherlink.com 1.10,2013-01-17 00:23:00,
2013-01-16 20:38:00,68.4,-99.9,30.02,East,88,0.0,1.0,0,0.00,,,0.00,0,weatherlink.com 1.10,2013-01-17 00:38:00,
2013-01-16 20:53:00,68.2,-99.9,30.02,East,88,1.0,2.0,0,0.00,,,0.00,0,weatherlink.com 1.10,2013-01-17 00:53:00,
2013-01-16 21:08:00,68.1,-99.9,30.02,East,88,1.0,2.0,0,0.00,,,0.00,0,weatherlink.com 1.10,2013-01-17 01:08:00,
2013-01-16 21:23:00,68.0,-99.9,30.02,East,88,0.0,2.0,0,0.00,,,0.00,0,weatherlink.com 1.10,2013-01-17 01:23:00,
2013-01-16 21:38:00,68.1,-99.9,30.03,East,88,0.0,0.0,0,0.00,,,0.00,0,weatherlink.com 1.10,2013-01-17 01:38:00,
2013-01-16 21:54:00,68.3,-99.9,30.02,East,88,0.0,0.0,0,0.00,,,0.00,0,weatherlink.com 1.10,2013-01-17 01:54:00,
2013-01-16 22:09:00,68.4,-99.9,30.02,East,88,0.0,1.0,0,0.00,,,0.00,0,weatherlink.com 1.10,2013-01-17 02:09:00,
2013-01-16 22:39:00,68.2,-99.9,30.03,East,88,0.0,1.0,0,0.00,,,0.00,0,weatherlink.com 1.10,2013-01-17 02:39:00,
2013-01-16 22:54:00,68.0,-99.9,30.03,East,88,0.0,2.0,0,0.00,,,0.00,0,weatherlink.com 1.10,2013-01-17 02:54:00,
2013-01-16 23:08:00,67.7,-99.9,30.02,East,88,1.0,3.0,0,0.00,,,0.00,0,weatherlink.com 1.10,2013-01-17 03:08:00,
2013-01-16 23:24:00,67.6,-99.9,30.02,East,88,0.0,2.0,0,0.00,,,0.00,0,weatherlink.com 1.10,2013-01-17 03:24:00,
2013-01-16 23:39:00,67.5,-99.9,30.02,East,88,0.0,3.0,0,0.00,,,0.00,0,weatherlink.com 1.10,2013-01-17 03:39:00,
2013-01-16 23:54:00,67.2,-99.9,30.02,NW,306,0.0,4.0,0,0.00,,,0.00,0,weatherlink.com 1.10,2013-01-17 03:54:00,